Time;durP1;ratioP1;P1;durP2;ratioP2;P2;SDS_P1;SDS_P2;PMS_P1;PMS_P2;Temp;Humidity;BMP_temperature;BMP_pressure;BME280_temperature;BME280_humidity;BME280_pressure;Samples;Min_cycle;Max_cycle;Signal;HPM_P1;HPM_P2
2023/02/23 00:00:31;;;;;;;35.90;22.27;;;9.00;99.90;;;;;;5008333;28;20970;-73
2023/02/23 00:03:17;;;;;;;32.93;23.50;;;9.00;99.90;;;;;;5010943;28;20474;-73
2023/02/23 00:06:04;;;;;;;34.30;23.43;;;9.00;99.90;;;;;;5005308;28;20453;-73
2023/02/23 00:08:51;;;;;;;34.73;24.43;;;9.00;99.90;;;;;;5010343;28;20918;-73
2023/02/23 00:11:36;;;;;;;29.87;23.40;;;9.00;99.90;;;;;;5009438;28;20491;-75
2023/02/23 00:14:26;;;;;;;36.00;24.00;;;8.90;99.90;;;;;;5004120;28;20467;-74
2023/02/23 00:17:13;;;;;;;30.63;22.77;;;9.00;99.90;;;;;;5011154;28;20434;-73
2023/02/23 00:19:58;;;;;;;37.63;25.57;;;9.00;99.90;;;;;;5004015;28;20505;-72
2023/02/23 00:22:46;;;;;;;33.57;22.63;;;9.00;99.90;;;;;;5009038;28;21019;-73
2023/02/23 00:25:31;;;;;;;33.87;24.20;;;9.10;99.90;;;;;;4999006;28;21075;-73
2023/02/23 00:28:17;;;;;;;35.57;24.53;;;9.10;99.90;;;;;;5005013;28;20462;-73
2023/02/23 00:31:03;;;;;;;30.87;22.00;;;9.10;99.90;;;;;;5011719;28;20436;-73
2023/02/23 00:33:50;;;;;;;30.27;22.50;;;9.10;99.90;;;;;;5008742;28;20463;-76
2023/02/23 00:36:36;;;;;;;30.97;22.67;;;9.10;99.90;;;;;;4997481;28;20456;-73
2023/02/23 00:39:27;;;;;;;43.97;24.27;;;9.20;99.90;;;;;;5002062;28;20433;-73
2023/02/23 00:42:13;;;;;;;34.90;24.73;;;9.20;99.90;;;;;;5008539;28;20429;-73
2023/02/23 00:45:05;;;;;;;32.57;23.67;;;9.20;99.90;;;;;;4998233;28;20611;-73
2023/02/23 00:47:51;;;;;;;31.20;22.77;;;9.20;99.90;;;;;;5003477;28;20501;-77
2023/02/23 00:50:40;;;;;;;39.17;22.80;;;9.20;99.90;;;;;;5018506;28;20426;-73
2023/02/23 00:53:26;;;;;;;31.83;22.77;;;9.20;99.90;;;;;;5007320;28;20441;-73
2023/02/23 00:56:14;;;;;;;32.90;23.00;;;9.30;99.90;;;;;;5003514;28;21321;-73
2023/02/23 00:59:00;;;;;;;30.13;23.53;;;9.20;99.90;;;;;;5002634;28;20564;-73
2023/02/23 01:01:46;;;;;;;36.70;24.87;;;9.20;99.90;;;;;;5003926;28;20447;-73
2023/02/23 01:04:32;;;;;;;32.33;23.70;;;9.20;99.90;;;;;;5001270;28;20497;-72
2023/02/23 01:07:18;;;;;;;28.83;21.63;;;9.20;99.90;;;;;;4995581;28;20441;-73
2023/02/23 01:10:17;;;;;;;32.03;24.10;;;9.20;99.90;;;;;;4997156;28;20848;-73
2023/02/23 01:13:05;;;;;;;26.10;21.93;;;9.20;99.90;;;;;;5010056;28;20541;-75
2023/02/23 01:15:51;;;;;;;33.40;24.23;;;9.20;99.90;;;;;;4994639;28;20444;-73
2023/02/23 01:18:38;;;;;;;34.13;24.10;;;9.20;99.90;;;;;;4999250;28;20442;-73
2023/02/23 01:21:26;;;;;;;32.53;23.40;;;9.20;99.90;;;;;;5001018;28;20928;-72
2023/02/23 01:24:13;;;;;;;32.70;23.47;;;9.20;99.90;;;;;;4996496;28;20487;-73
2023/02/23 01:26:58;;;;;;;33.90;22.73;;;9.20;99.90;;;;;;5021459;22;20497;-73
2023/02/23 01:29:46;;;;;;;32.10;24.23;;;9.20;99.90;;;;;;5028650;28;20501;-73
2023/02/23 01:32:31;;;;;;;33.50;23.83;;;9.20;99.90;;;;;;5030088;28;21440;-73
2023/02/23 01:35:17;;;;;;;36.30;24.70;;;9.20;99.90;;;;;;5019830;28;20416;-73
2023/02/23 01:38:03;;;;;;;36.37;25.80;;;9.30;99.90;;;;;;5023780;28;20503;-73
2023/02/23 01:40:49;;;;;;;34.30;23.60;;;9.20;99.90;;;;;;5018600;28;20811;-74
2023/02/23 01:43:35;;;;;;;33.47;22.13;;;9.30;99.90;;;;;;5021412;28;20507;-73
2023/02/23 01:46:22;;;;;;;31.13;24.40;;;9.30;99.90;;;;;;5027263;28;20461;-73
2023/02/23 01:49:14;;;;;;;33.97;24.30;;;9.30;99.90;;;;;;5029536;28;20830;-73
2023/02/23 01:52:03;;;;;;;33.20;25.27;;;9.20;99.90;;;;;;5026312;28;20453;-73
2023/02/23 01:54:53;;;;;;;34.53;26.17;;;9.20;99.90;;;;;;5020562;28;20550;-73
2023/02/23 01:57:40;;;;;;;37.93;27.77;;;9.20;99.90;;;;;;5026610;28;20439;-73
2023/02/23 02:00:27;;;;;;;32.40;25.57;;;9.10;99.90;;;;;;5018902;28;20445;-73
2023/02/23 02:03:22;;;;;;;34.67;24.53;;;9.10;99.90;;;;;;5020111;28;20940;-73
2023/02/23 02:06:13;;;;;;;30.40;24.53;;;9.20;99.90;;;;;;5028866;28;20444;-74
2023/02/23 02:09:05;;;;;;;33.73;24.17;;;9.20;99.90;;;;;;5026355;28;20824;-73
2023/02/23 02:11:52;;;;;;;34.17;24.47;;;9.10;99.90;;;;;;5025035;28;20412;-73
2023/02/23 02:14:38;;;;;;;31.80;25.63;;;9.20;99.90;;;;;;5021268;28;20494;-73
2023/02/23 02:17:37;;;;;;;38.73;25.77;;;9.10;99.90;;;;;;5024971;28;20528;-73
2023/02/23 02:20:57;;;;;;;30.13;23.23;;;9.10;99.90;;;;;;5025844;28;20465;-73
2023/02/23 02:24:14;;;;;;;30.77;22.63;;;9.20;99.90;;;;;;5019938;28;20557;-73
2023/02/23 02:27:13;;;;;;;31.30;23.13;;;9.20;99.90;;;;;;5024493;28;20934;-73
2023/02/23 02:30:33;;;;;;;31.77;24.13;;;9.20;99.90;;;;;;5019388;28;20581;-72
2023/02/23 02:33:47;;;;;;;31.50;23.00;;;9.30;99.90;;;;;;5025309;28;20440;-73
2023/02/23 02:37:13;;;;;;;30.17;22.50;;;9.20;99.90;;;;;;5029312;28;20509;-72
2023/02/23 02:40:15;;;;;;;30.00;23.20;;;9.30;99.90;;;;;;5019205;28;20972;-73
2023/02/23 02:43:10;;;;;;;33.37;24.50;;;9.30;99.90;;;;;;5023649;28;20455;-73
2023/02/23 02:46:01;;;;;;;35.50;24.50;;;9.30;99.90;;;;;;5030401;28;20471;-73
2023/02/23 02:48:56;;;;;;;28.20;22.47;;;9.30;99.90;;;;;;5033472;28;20474;-73
2023/02/23 02:51:48;;;;;;;31.90;22.77;;;9.30;99.90;;;;;;5028828;28;20970;-73
2023/02/23 02:54:38;;;;;;;32.70;23.90;;;9.30;99.90;;;;;;5021106;28;20449;-72
2023/02/23 02:57:28;;;;;;;39.23;26.37;;;9.30;99.90;;;;;;5030326;28;20448;-73
2023/02/23 04:18:46;;;;;;;36.67;25.97;;;9.30;99.90;;;;;;5033983;28;20459;-73
2023/02/23 04:21:32;;;;;;;34.03;26.00;;;9.30;99.90;;;;;;5019713;28;20446;-73
2023/02/23 04:24:18;;;;;;;37.30;24.90;;;9.30;99.90;;;;;;5026538;28;21105;-73
2023/02/23 04:27:03;;;;;;;32.63;23.03;;;9.30;99.90;;;;;;5030592;28;20532;-73
2023/02/23 04:29:50;;;;;;;42.15;28.52;;;9.30;99.90;;;;;;5019853;28;20530;-73
2023/02/23 04:32:35;;;;;;;34.83;24.50;;;9.30;99.90;;;;;;5023974;28;20211;-73
2023/02/23 04:35:22;;;;;;;35.53;26.10;;;9.30;99.90;;;;;;5024173;28;20457;-73
2023/02/23 04:38:07;;;;;;;36.80;24.00;;;9.30;99.90;;;;;;5027626;28;20470;-73
2023/02/23 04:40:53;;;;;;;38.70;25.40;;;9.30;99.90;;;;;;5025726;28;20887;-73
2023/02/23 04:43:39;;;;;;;35.63;23.23;;;9.30;99.90;;;;;;5018767;28;20448;-73
2023/02/23 04:46:25;;;;;;;33.70;25.00;;;9.30;99.90;;;;;;5024183;28;20536;-72
2023/02/23 04:49:11;;;;;;;38.10;24.90;;;9.30;99.90;;;;;;5027254;28;20800;-73
2023/02/23 04:51:57;;;;;;;37.23;24.17;;;9.30;99.90;;;;;;5029739;28;20543;-72
2023/02/23 04:54:42;;;;;;;34.93;24.27;;;9.20;99.90;;;;;;5011296;28;20539;-73
2023/02/23 04:57:28;;;;;;;30.20;23.00;;;9.20;99.90;;;;;;5028383;28;21149;-72
2023/02/23 05:00:14;;;;;;;37.67;22.77;;;9.30;99.90;;;;;;5022485;28;20449;-72
2023/02/23 05:03:01;;;;;;;33.80;23.30;;;9.30;99.90;;;;;;5021497;28;20811;-73
2023/02/23 05:05:47;;;;;;;30.87;22.10;;;9.30;99.90;;;;;;5028824;28;20488;-73
2023/02/23 05:08:32;;;;;;;32.83;25.57;;;9.30;99.90;;;;;;5021289;28;20833;-73
2023/02/23 05:11:18;;;;;;;43.80;25.43;;;9.40;99.90;;;;;;5019129;28;20424;-73
2023/02/23 05:14:04;;;;;;;34.43;24.27;;;9.30;99.90;;;;;;5022312;28;20542;-73
2023/02/23 05:16:50;;;;;;;33.70;26.07;;;9.40;99.90;;;;;;5030374;28;22108;-73
2023/02/23 05:19:37;;;;;;;33.07;26.30;;;9.40;99.90;;;;;;5028575;28;20586;-73
2023/02/23 05:22:23;;;;;;;34.13;24.70;;;9.30;99.90;;;;;;5030083;28;20461;-72
2023/02/23 05:25:10;;;;;;;34.50;25.83;;;9.40;99.90;;;;;;5024248;28;20431;-72
2023/02/23 05:27:56;;;;;;;33.87;26.30;;;9.40;99.90;;;;;;5026687;28;20628;-73
2023/02/23 05:30:42;;;;;;;35.33;27.50;;;9.50;99.90;;;;;;5021442;28;20850;-73
2023/02/23 05:33:28;;;;;;;35.80;26.57;;;9.50;99.90;;;;;;5026438;28;20488;-73
2023/02/23 05:36:17;;;;;;;39.50;27.20;;;9.50;99.90;;;;;;5025351;28;20973;-72
2023/02/23 05:39:03;;;;;;;36.37;27.00;;;9.40;99.90;;;;;;5034386;28;20936;-73
2023/02/23 05:41:48;;;;;;;45.37;29.70;;;9.40;99.90;;;;;;5021785;28;20518;-73
2023/02/23 05:44:34;;;;;;;42.17;27.67;;;9.40;99.90;;;;;;5022249;28;20428;-73
2023/02/23 05:47:20;;;;;;;38.33;28.20;;;9.40;99.90;;;;;;5030848;28;20552;-73
2023/02/23 05:50:07;;;;;;;37.40;27.10;;;9.40;99.90;;;;;;5023092;28;20526;-73
2023/02/23 05:52:54;;;;;;;43.20;28.20;;;9.40;99.90;;;;;;5031524;28;20536;-72
2023/02/23 05:55:39;;;;;;;39.73;27.63;;;9.40;99.90;;;;;;5024536;28;20416;-72
2023/02/23 05:58:25;;;;;;;43.90;29.20;;;9.40;99.90;;;;;;5025627;28;20447;-73
2023/02/23 06:01:11;;;;;;;39.33;26.60;;;9.50;99.90;;;;;;5026404;28;20832;-73
2023/02/23 06:03:57;;;;;;;38.63;26.33;;;9.50;99.90;;;;;;5028170;28;20445;-72
2023/02/23 06:06:43;;;;;;;42.27;28.17;;;9.50;99.90;;;;;;5028087;28;20473;-72
2023/02/23 06:09:30;;;;;;;45.87;30.07;;;9.50;99.90;;;;;;5020504;28;20439;-72
2023/02/23 06:12:15;;;;;;;36.87;27.50;;;9.50;99.90;;;;;;5030725;28;20454;-72
2023/02/23 06:15:01;;;;;;;36.80;27.37;;;9.50;99.90;;;;;;5027676;28;20969;-72
2023/02/23 06:17:47;;;;;;;42.97;29.23;;;9.50;99.90;;;;;;5021857;28;20432;-72
2023/02/23 06:20:32;;;;;;;40.90;29.77;;;9.60;99.90;;;;;;5025029;28;21123;-72
2023/02/23 06:23:18;;;;;;;44.27;30.10;;;9.60;99.90;;;;;;5022274;28;20435;-72
2023/02/23 06:26:07;;;;;;;46.43;30.40;;;9.60;99.90;;;;;;5023716;28;20469;-72
2023/02/23 06:28:52;;;;;;;44.03;28.60;;;9.50;99.90;;;;;;5029252;28;20938;-72
2023/02/23 06:31:37;;;;;;;39.20;29.87;;;9.50;99.90;;;;;;5025005;28;20432;-72
2023/02/23 06:34:23;;;;;;;50.50;32.00;;;9.60;99.90;;;;;;5024264;28;20459;-72
2023/02/23 06:37:09;;;;;;;46.23;29.77;;;9.60;99.90;;;;;;5022210;28;20983;-72
2023/02/23 06:39:54;;;;;;;49.27;30.47;;;9.70;99.90;;;;;;5016770;28;20434;-72
2023/02/23 06:42:42;;;;;;;46.07;29.17;;;9.70;99.90;;;;;;5028966;28;20424;-72
2023/02/23 06:45:27;;;;;;;41.63;29.30;;;9.70;99.90;;;;;;5025360;28;20997;-72
2023/02/23 06:48:13;;;;;;;38.93;27.87;;;9.80;99.90;;;;;;5028177;28;20466;-72
2023/02/23 06:50:59;;;;;;;70.93;42.57;;;9.70;99.90;;;;;;5017992;28;20795;-72
2023/02/23 06:53:45;;;;;;;50.53;34.60;;;9.80;99.90;;;;;;5021459;28;20425;-72
2023/02/23 06:56:31;;;;;;;62.90;38.77;;;9.80;99.90;;;;;;5023249;28;20901;-72
2023/02/23 06:59:17;;;;;;;65.30;41.10;;;9.80;99.90;;;;;;5022552;28;20421;-72
2023/02/23 07:02:04;;;;;;;55.97;36.37;;;9.70;99.90;;;;;;5019692;28;20479;-72
2023/02/23 07:04:50;;;;;;;51.83;32.20;;;9.80;99.90;;;;;;5023364;28;20422;-72
2023/02/23 07:07:36;;;;;;;48.10;31.37;;;9.80;99.90;;;;;;5021340;28;20486;-72
2023/02/23 07:10:21;;;;;;;54.80;37.27;;;9.90;99.90;;;;;;5019861;28;20528;-72
2023/02/23 07:13:07;;;;;;;55.63;33.33;;;9.90;99.90;;;;;;5022918;28;20471;-72
2023/02/23 07:15:57;;;;;;;56.63;33.40;;;9.90;99.90;;;;;;5024320;28;20460;-72
2023/02/23 07:18:42;;;;;;;50.57;31.90;;;10.00;99.90;;;;;;5022180;28;20539;-72
2023/02/23 07:21:28;;;;;;;50.23;33.50;;;10.00;99.90;;;;;;5018591;28;20459;-72
2023/02/23 07:24:13;;;;;;;68.57;39.30;;;10.00;99.90;;;;;;5028836;28;20413;-72
2023/02/23 07:26:59;;;;;;;53.10;34.93;;;10.10;99.90;;;;;;5026394;28;20449;-72
2023/02/23 07:29:45;;;;;;;51.90;34.03;;;10.10;99.90;;;;;;5023174;28;20413;-72
2023/02/23 07:32:32;;;;;;;52.23;34.23;;;10.20;99.90;;;;;;5020686;28;20424;-72
2023/02/23 07:35:18;;;;;;;61.80;38.10;;;10.20;99.90;;;;;;5029487;28;20421;-72
2023/02/23 07:38:06;;;;;;;57.47;36.33;;;10.20;99.90;;;;;;5030274;28;21001;-72
2023/02/23 07:40:52;;;;;;;57.30;40.20;;;10.30;99.90;;;;;;5024588;28;21560;-72
2023/02/23 07:43:38;;;;;;;54.27;35.87;;;10.30;99.90;;;;;;5019602;28;20783;-72
2023/02/23 07:46:23;;;;;;;43.80;29.40;;;10.30;99.90;;;;;;5020878;28;20456;-71
2023/02/23 07:49:10;;;;;;;54.30;33.93;;;10.40;99.90;;;;;;5026314;28;20442;-72
2023/02/23 07:51:56;;;;;;;49.33;33.73;;;10.40;99.90;;;;;;5030110;28;20467;-72
2023/02/23 07:54:41;;;;;;;49.33;31.70;;;10.40;99.90;;;;;;5026702;28;20427;-72
2023/02/23 07:57:27;;;;;;;47.73;30.50;;;10.40;99.90;;;;;;5025491;28;20601;-72
2023/02/23 08:00:13;;;;;;;48.20;30.30;;;10.50;99.90;;;;;;5032659;28;21012;-72
2023/02/23 08:03:00;;;;;;;46.97;31.77;;;10.50;99.90;;;;;;5025544;28;20424;-71
2023/02/23 08:05:47;;;;;;;50.93;32.77;;;10.50;99.90;;;;;;5020722;28;20429;-71
2023/02/23 08:08:34;;;;;;;50.83;32.50;;;10.60;99.90;;;;;;5023311;28;20484;-71
2023/02/23 08:11:19;;;;;;;49.87;32.50;;;10.60;99.90;;;;;;5033933;28;20778;-71
2023/02/23 08:14:05;;;;;;;45.10;30.30;;;10.60;99.90;;;;;;5027007;28;20450;-73
2023/02/23 08:16:51;;;;;;;40.40;28.20;;;10.70;99.90;;;;;;5018187;28;20471;-72
2023/02/23 08:19:37;;;;;;;44.97;27.03;;;10.70;99.90;;;;;;5017081;28;20466;-71
2023/02/23 08:22:24;;;;;;;40.50;27.90;;;10.70;99.90;;;;;;5026478;28;20432;-72
2023/02/23 08:25:10;;;;;;;40.73;28.33;;;10.70;99.90;;;;;;5026868;28;21262;-72
2023/02/23 08:27:58;;;;;;;40.30;27.77;;;10.70;99.90;;;;;;5020143;28;21069;-71
2023/02/23 08:30:44;;;;;;;40.93;25.97;;;10.60;99.90;;;;;;5023369;28;20845;-71
2023/02/23 08:33:30;;;;;;;35.70;25.70;;;10.70;99.90;;;;;;5034803;28;20501;-70
2023/02/23 08:36:16;;;;;;;42.53;25.87;;;10.70;99.90;;;;;;5031921;28;20955;-71
2023/02/23 08:39:05;;;;;;;44.77;29.10;;;10.70;99.90;;;;;;5020482;28;20453;-71
2023/02/23 08:41:51;;;;;;;39.63;27.20;;;10.70;99.90;;;;;;5021993;28;20421;-72
2023/02/23 08:44:36;;;;;;;40.10;27.03;;;10.70;99.90;;;;;;5029672;28;20454;-71
2023/02/23 08:47:23;;;;;;;41.90;28.30;;;10.70;99.90;;;;;;5019883;28;20469;-71
2023/02/23 08:50:10;;;;;;;40.00;27.40;;;10.60;99.90;;;;;;5025531;28;20419;-71
2023/02/23 08:52:55;;;;;;;39.97;28.67;;;10.60;99.90;;;;;;5033698;28;20529;-71
2023/02/23 08:55:42;;;;;;;44.90;29.50;;;10.70;99.90;;;;;;5032429;28;20429;-71
2023/02/23 08:58:30;;;;;;;42.20;28.30;;;10.70;99.90;;;;;;5022280;28;20523;-71
2023/02/23 09:01:17;;;;;;;44.20;27.80;;;10.70;99.90;;;;;;5032472;28;20445;-71
2023/02/23 09:04:05;;;;;;;43.20;29.50;;;10.70;99.90;;;;;;5038416;28;20494;-71
2023/02/23 09:06:51;;;;;;;43.73;28.20;;;10.70;99.90;;;;;;5034507;28;20485;-71
2023/02/23 09:09:37;;;;;;;41.00;27.60;;;10.70;99.90;;;;;;5028355;28;20454;-71
2023/02/23 09:12:23;;;;;;;43.63;30.13;;;10.80;99.90;;;;;;5030643;28;20437;-71
2023/02/23 09:15:10;;;;;;;44.33;29.60;;;10.80;99.90;;;;;;5032619;28;20396;-71
2023/02/23 09:18:00;;;;;;;44.57;32.27;;;10.70;99.90;;;;;;5020124;28;20583;-71
2023/02/23 09:20:46;;;;;;;43.00;31.50;;;10.70;99.90;;;;;;5030792;28;20425;-71
2023/02/23 09:23:31;;;;;;;43.87;30.13;;;10.80;99.90;;;;;;5029004;28;20412;-71
2023/02/23 09:26:17;;;;;;;50.33;33.70;;;10.90;99.90;;;;;;5022082;28;20430;-71
2023/02/23 09:29:04;;;;;;;43.13;29.80;;;10.90;99.90;;;;;;5028444;28;20427;-71
2023/02/23 09:31:51;;;;;;;44.83;27.57;;;11.00;99.90;;;;;;5030504;28;20415;-70
2023/02/23 09:34:37;;;;;;;49.67;30.73;;;11.00;99.90;;;;;;5029266;28;20896;-71
2023/02/23 09:37:23;;;;;;;44.43;28.40;;;11.00;99.90;;;;;;5030974;28;20465;-71
2023/02/23 09:40:14;;;;;;;45.63;31.07;;;11.00;99.90;;;;;;5029744;28;20822;-71
2023/02/23 09:43:05;;;;;;;45.80;31.73;;;11.00;99.90;;;;;;5023996;28;20963;-71
2023/02/23 09:46:00;;;;;;;39.10;28.30;;;11.00;99.90;;;;;;5029657;28;20426;-71
2023/02/23 09:48:46;;;;;;;48.43;31.87;;;11.00;99.90;;;;;;5032806;28;20774;-72
2023/02/23 09:51:38;;;;;;;52.13;30.10;;;11.00;99.90;;;;;;5021431;28;20422;-72
2023/02/23 09:54:26;;;;;;;47.60;31.60;;;10.90;99.90;;;;;;5028036;28;20567;-71
2023/02/23 09:57:16;;;;;;;41.60;29.23;;;11.00;99.90;;;;;;5028877;28;20430;-71
2023/02/23 10:00:04;;;;;;;42.20;31.33;;;11.00;99.90;;;;;;5027019;28;20450;-71
2023/02/23 10:03:05;;;;;;;44.67;30.97;;;11.00;99.90;;;;;;5020527;28;20442;-71
2023/02/23 10:05:55;;;;;;;45.80;31.03;;;11.10;99.90;;;;;;5017055;28;20451;-71
2023/02/23 10:08:48;;;;;;;45.47;29.80;;;11.10;99.90;;;;;;5027074;28;20540;-71
2023/02/23 10:11:42;;;;;;;51.23;28.90;;;11.20;99.90;;;;;;5028687;28;20826;-71
2023/02/23 10:14:43;;;;;;;41.73;27.87;;;11.20;99.90;;;;;;5030580;28;20511;-71
2023/02/23 10:17:38;;;;;;;40.60;27.03;;;11.30;99.90;;;;;;5033200;28;20450;-71
2023/02/23 10:20:35;;;;;;;43.43;26.60;;;11.40;99.90;;;;;;5030187;28;20573;-71
2023/02/23 10:23:28;;;;;;;41.10;27.60;;;11.50;99.90;;;;;;5027438;28;20439;-71
2023/02/23 10:26:18;;;;;;;46.23;26.50;;;11.60;99.90;;;;;;5036361;28;20401;-71
2023/02/23 10:29:11;;;;;;;36.77;25.80;;;11.70;99.90;;;;;;5027602;28;20971;-72
2023/02/23 10:31:59;;;;;;;38.70;24.20;;;11.70;99.90;;;;;;5028479;28;20820;-71
2023/02/23 10:34:48;;;;;;;36.93;23.83;;;11.90;99.90;;;;;;5032517;28;20427;-71
2023/02/23 10:37:35;;;;;;;33.43;24.60;;;12.00;99.90;;;;;;5034073;28;20423;-71
2023/02/23 10:40:23;;;;;;;33.70;22.73;;;12.10;99.90;;;;;;5033798;28;20505;-72
2023/02/23 10:43:12;;;;;;;33.37;22.07;;;12.20;99.90;;;;;;5033836;28;20533;-72
2023/02/23 10:45:58;;;;;;;34.67;23.60;;;12.30;99.90;;;;;;5029943;28;20895;-72
2023/02/23 10:48:44;;;;;;;33.83;22.87;;;12.20;99.90;;;;;;5035890;28;20452;-71
2023/02/23 10:51:36;;;;;;;35.17;23.70;;;12.30;99.90;;;;;;5022593;28;20422;-71
2023/02/23 10:54:37;;;;;;;34.50;23.93;;;12.20;99.90;;;;;;5025852;28;21001;-71
2023/02/23 10:57:25;;;;;;;37.90;22.80;;;12.30;99.90;;;;;;5022412;28;20470;-71
2023/02/23 11:00:31;;;;;;;35.73;23.00;;;12.20;99.90;;;;;;5027151;28;20442;-70
2023/02/23 11:03:22;;;;;;;33.97;22.80;;;12.20;99.90;;;;;;5019308;28;20499;-70
2023/02/23 11:06:28;;;;;;;37.97;25.10;;;12.40;99.90;;;;;;5027207;28;20570;-71
2023/02/23 11:09:24;;;;;;;40.97;24.20;;;12.40;99.90;;;;;;5024828;28;20413;-71
2023/02/23 11:12:21;;;;;;;37.43;22.73;;;12.50;99.90;;;;;;5034012;28;20979;-71
2023/02/23 11:15:26;;;;;;;61.80;33.63;;;12.40;99.90;;;;;;5035133;28;20816;-71
2023/02/23 11:18:21;;;;;;;47.00;30.20;;;12.50;99.90;;;;;;5044613;28;20564;-71
2023/02/23 11:21:17;;;;;;;41.17;26.30;;;12.60;99.90;;;;;;5030654;28;20448;-72
2023/02/23 11:24:19;;;;;;;41.87;27.63;;;12.70;99.90;;;;;;5032599;28;20958;-71
2023/02/23 11:27:07;;;;;;;41.20;25.87;;;12.70;99.90;;;;;;5030935;28;20825;-71
2023/02/23 11:29:58;;;;;;;34.73;24.63;;;12.80;99.90;;;;;;5030716;28;20441;-71
2023/02/23 11:32:43;;;;;;;36.63;24.90;;;12.80;99.90;;;;;;5028069;28;20447;-71
2023/02/23 11:35:31;;;;;;;36.67;25.23;;;12.90;99.90;;;;;;5031366;28;20410;-71
2023/02/23 11:38:22;;;;;;;36.53;24.63;;;12.90;99.90;;;;;;5033018;28;20450;-71
2023/02/23 11:41:19;;;;;;;36.73;22.30;;;12.90;99.90;;;;;;5028374;28;20525;-71
2023/02/23 11:44:05;;;;;;;35.57;21.27;;;12.80;99.90;;;;;;5030781;28;20970;-71
2023/02/23 11:46:52;;;;;;;32.13;21.30;;;12.80;99.90;;;;;;5035144;28;20429;-72
2023/02/23 11:49:38;;;;;;;28.73;18.30;;;12.80;99.90;;;;;;5026216;28;20459;-72
2023/02/23 11:52:26;;;;;;;25.37;18.00;;;12.80;99.90;;;;;;5024602;28;20470;-71
2023/02/23 11:55:18;;;;;;;28.03;17.80;;;12.80;99.90;;;;;;5038209;28;20438;-71
2023/02/23 11:58:21;;;;;;;20.37;16.37;;;12.80;99.90;;;;;;5033417;28;20515;-71
2023/02/23 12:01:11;;;;;;;27.37;16.70;;;12.80;99.90;;;;;;5024787;28;20429;-71
2023/02/23 12:03:58;;;;;;;21.87;15.37;;;12.90;99.90;;;;;;5036401;28;20906;-71
2023/02/23 12:06:43;;;;;;;25.33;16.20;;;13.10;99.90;;;;;;5031555;28;20431;-71
2023/02/23 12:09:34;;;;;;;18.63;13.83;;;13.20;99.90;;;;;;5037555;28;20422;-71
2023/02/23 12:12:24;;;;;;;21.20;14.10;;;13.40;99.90;;;;;;5031944;28;20448;-71
2023/02/23 12:15:15;;;;;;;22.13;14.10;;;13.30;99.90;;;;;;5030629;28;20430;-71
2023/02/23 12:18:06;;;;;;;24.90;14.30;;;13.40;99.90;;;;;;5034421;28;20425;-71
2023/02/23 12:20:56;;;;;;;24.43;13.57;;;13.50;99.90;;;;;;5028112;28;20422;-71
2023/02/23 12:23:47;;;;;;;19.83;13.17;;;13.50;99.90;;;;;;5030323;28;20429;-71
2023/02/23 12:26:36;;;;;;;19.83;12.73;;;13.50;99.90;;;;;;5025147;28;20957;-71
2023/02/23 12:29:29;;;;;;;22.50;12.60;;;13.70;99.90;;;;;;5029484;28;21000;-71
2023/02/23 12:32:19;;;;;;;23.37;13.00;;;13.90;99.90;;;;;;5025901;28;20450;-71
2023/02/23 12:35:12;;;;;;;16.50;10.20;;;14.10;99.90;;;;;;5029224;28;20807;-71
2023/02/23 12:38:05;;;;;;;18.87;12.20;;;14.40;99.90;;;;;;5028952;28;20445;-71
2023/02/23 12:40:54;;;;;;;18.50;11.83;;;14.50;99.90;;;;;;5022749;28;20795;-71
2023/02/23 12:43:50;;;;;;;17.00;12.10;;;14.50;99.90;;;;;;5025945;28;20427;-71
2023/02/23 12:46:42;;;;;;;17.67;11.47;;;14.50;99.90;;;;;;5031865;28;20427;-71
2023/02/23 12:49:34;;;;;;;14.40;11.03;;;14.80;99.90;;;;;;5030090;28;20827;-72
2023/02/23 12:52:24;;;;;;;18.30;11.97;;;15.10;99.90;;;;;;5030944;28;20469;-71
2023/02/23 12:55:13;;;;;;;12.70;9.70;;;15.20;99.90;;;;;;5034000;28;20472;-71
2023/02/23 12:58:06;;;;;;;12.93;8.63;;;15.10;99.90;;;;;;5029191;28;20426;-71
2023/02/23 13:00:59;;;;;;;13.87;8.83;;;15.00;99.90;;;;;;5027167;28;20426;-71
2023/02/23 13:04:09;;;;;;;12.23;8.37;;;14.80;99.90;;;;;;5037814;28;20495;-72
2023/02/23 13:06:59;;;;;;;12.20;8.10;;;14.50;99.90;;;;;;5030082;28;20759;-71
2023/02/23 13:10:00;;;;;;;15.60;9.43;;;14.30;99.90;;;;;;5021203;28;20553;-72
2023/02/23 13:12:55;;;;;;;11.90;9.10;;;14.10;99.90;;;;;;5028695;28;20431;-71
2023/02/23 13:15:53;;;;;;;12.00;8.87;;;13.90;99.90;;;;;;5025608;28;20401;-72
2023/02/23 13:18:43;;;;;;;11.90;9.30;;;13.80;99.90;;;;;;5024468;28;20455;-71
2023/02/23 13:21:34;;;;;;;14.60;10.03;;;13.80;99.90;;;;;;5026958;28;20451;-71
2023/02/23 13:24:24;;;;;;;12.73;8.50;;;13.70;99.90;;;;;;5031604;28;20434;-71
2023/02/23 13:27:16;;;;;;;15.83;9.27;;;13.70;99.90;;;;;;5032740;28;20453;-72
2023/02/23 13:30:04;;;;;;;15.40;10.47;;;13.60;99.90;;;;;;5024451;28;20426;-71
2023/02/23 13:32:50;;;;;;;14.80;9.47;;;13.50;99.90;;;;;;5038935;28;20433;-72
2023/02/23 13:35:37;;;;;;;15.10;10.30;;;13.50;99.90;;;;;;5034946;28;20431;-72
2023/02/23 13:38:31;;;;;;;15.33;9.77;;;13.50;99.90;;;;;;5032682;28;20526;-72
2023/02/23 13:41:29;;;;;;;12.50;9.20;;;13.50;99.90;;;;;;5031684;28;20925;-72
2023/02/23 13:44:21;;;;;;;14.37;9.90;;;13.50;99.90;;;;;;5040153;28;20401;-72
2023/02/23 13:47:17;;;;;;;19.33;11.27;;;13.50;99.90;;;;;;5037659;28;20788;-72
2023/02/23 13:50:07;;;;;;;12.50;9.43;;;13.50;99.90;;;;;;5029021;28;20414;-71
2023/02/23 13:52:57;;;;;;;15.17;9.90;;;13.60;99.90;;;;;;5038592;28;20472;-72
2023/02/23 13:55:50;;;;;;;15.70;9.63;;;13.60;99.90;;;;;;5032218;28;20517;-72
2023/02/23 13:58:37;;;;;;;8.87;7.07;;;13.60;99.90;;;;;;5032327;28;20563;-72
2023/02/23 14:01:29;;;;;;;9.57;7.60;;;13.60;99.90;;;;;;5024946;28;20421;-72
2023/02/23 14:04:22;;;;;;;11.13;6.03;;;13.60;99.90;;;;;;5032939;28;20445;-72
2023/02/23 14:07:18;;;;;;;8.13;5.63;;;13.50;99.90;;;;;;5032863;28;20983;-72
2023/02/23 14:10:07;;;;;;;11.77;7.40;;;13.50;99.90;;;;;;5022589;28;20457;-72
2023/02/23 14:13:26;;;;;;;10.80;6.43;;;13.30;99.90;;;;;;5030238;28;20430;-72
2023/02/23 14:16:17;;;;;;;9.80;6.50;;;13.40;99.90;;;;;;5038162;28;20454;-72
2023/02/23 14:19:32;;;;;;;10.27;6.60;;;13.40;99.90;;;;;;5027995;28;20422;-72
2023/02/23 14:22:20;;;;;;;10.33;6.37;;;13.40;99.90;;;;;;5035639;28;20499;-72
2023/02/23 14:25:44;;;;;;;11.93;5.83;;;13.40;99.90;;;;;;5031337;28;20460;-72
2023/02/23 14:28:35;;;;;;;9.20;5.60;;;13.50;99.90;;;;;;5028959;28;20494;-72
2023/02/23 14:31:34;;;;;;;7.60;5.43;;;13.40;99.90;;;;;;5039692;28;20929;-72
2023/02/23 14:34:22;;;;;;;10.33;5.93;;;13.50;99.90;;;;;;5030937;28;20884;-72
2023/02/23 14:37:18;;;;;;;10.33;5.03;;;13.40;99.90;;;;;;5032382;28;20453;-71
2023/02/23 14:40:13;;;;;;;10.20;5.50;;;13.50;99.90;;;;;;5025651;28;20467;-72
2023/02/23 14:43:02;;;;;;;8.93;5.10;;;13.40;99.90;;;;;;5037091;28;20483;-72
2023/02/23 14:45:47;;;;;;;7.13;4.63;;;13.40;99.90;;;;;;5036459;28;20540;-72
2023/02/23 14:48:35;;;;;;;10.87;5.30;;;13.40;99.90;;;;;;5032290;28;20482;-72
2023/02/23 14:51:27;;;;;;;8.23;5.80;;;13.40;99.90;;;;;;5027645;28;20793;-72
2023/02/23 14:54:25;;;;;;;8.93;4.90;;;13.40;99.90;;;;;;5038107;28;20934;-72
2023/02/23 14:57:19;;;;;;;6.53;4.03;;;13.40;99.90;;;;;;5035951;28;20434;-72
2023/02/23 15:00:11;;;;;;;9.03;5.53;;;13.40;99.90;;;;;;5028701;28;20454;-72
2023/02/23 15:02:59;;;;;;;9.93;6.20;;;13.40;99.90;;;;;;5033181;28;20426;-72
2023/02/23 15:05:50;;;;;;;8.33;6.07;;;13.40;99.90;;;;;;5035764;28;20393;-72
2023/02/23 15:08:40;;;;;;;10.10;6.40;;;13.40;99.90;;;;;;5030480;28;20535;-72
2023/02/23 15:11:25;;;;;;;7.43;5.33;;;13.30;99.90;;;;;;5035129;28;20431;-72
2023/02/23 15:14:15;;;;;;;7.83;5.60;;;13.30;99.90;;;;;;5033007;28;20490;-72
2023/02/23 15:17:00;;;;;;;9.27;6.73;;;13.40;99.90;;;;;;5032409;28;20466;-72
2023/02/23 15:19:48;;;;;;;10.50;6.23;;;13.40;99.90;;;;;;5031639;28;20446;-72
2023/02/23 15:22:37;;;;;;;10.83;7.43;;;13.30;99.90;;;;;;5030973;28;20987;-72
2023/02/23 15:25:32;;;;;;;10.47;6.40;;;13.30;99.90;;;;;;5036826;28;20427;-72
2023/02/23 15:28:24;;;;;;;10.37;5.97;;;13.30;99.90;;;;;;5034452;28;20853;-72
2023/02/23 15:31:11;;;;;;;7.23;5.37;;;13.40;99.90;;;;;;5034364;28;20416;-72
2023/02/23 15:33:57;;;;;;;9.73;5.60;;;13.40;99.90;;;;;;5029552;28;20538;-72
2023/02/23 15:36:45;;;;;;;13.23;4.80;;;13.20;99.90;;;;;;5035173;28;20458;-72
2023/02/23 15:39:37;;;;;;;9.20;6.07;;;13.10;99.90;;;;;;5032138;28;20507;-72
2023/02/23 15:42:29;;;;;;;10.90;6.80;;;13.10;99.90;;;;;;5029338;28;20431;-72
2023/02/23 15:45:27;;;;;;;11.93;6.47;;;13.20;99.90;;;;;;5031458;28;20759;-72